Matsuyama Airport, Japan

3:18 PM JST on July 06, 2015 (GMT +0900)
Matsuyama | | Change Station
CLOSE
Current Station
Airport
Location: Matsuyama Airport,
Elevation: 23 ft
Nearby Weather Stations

Elev 23 ft 33.83 °N, 132.70 °E | Updated 18 minutes ago

Scattered Clouds
Scattered Clouds
72 °F
Feels Like 72 °F
N
8
Wind Variable Wind from NNW

Today
High -- | Low -- °F
--% Chance of Precip.
Yesterday
High -- | Low -- °F
Precip. -- in
5:03 AM 7:23 PM
Waning Gibbous, 78% visible
Pressure 29.83 in
Visibility 3.7 miles
Clouds Few 2500 ft
Scattered Clouds 6000 ft
Dew Point 68 °F
Humidity 88%
Rainfall 0.00 in
Snow Depth Not available.
UV 7 out of 12
Pollen Not available.
Air Quality Not available.
Flu Activity Not available.
METAR RJOM 060600Z 33007KT 6000 FEW025 SCT060 BKN/// 22/20 Q1010

More Conditions Fewer Conditions

Pressure 29.83 in
Visibility 3.7 miles
Clouds Few 2500 ft
Scattered Clouds 6000 ft
Dew Point 68 °F
Humidity 88%
Rainfall 0.00 in
Snow Depth Not available.
UV 7 out of 12
Pollen Not available.
Air Quality Not available.
Flu Activity Not available.
METAR RJOM 060600Z 33007KT 6000 FEW025 SCT060 BKN/// 22/20 Q1010

More Conditions Fewer Conditions

10-Day Weather Forecast

×

Almanac

Astronomy

Jul. 06, 2015 Rise Set
Actual Time
Civil Twilight
Nautical Twilight
Astronomical Twilight
Moon
Length of Visible Light
Length of Day
Tomorrow will be .
, % of the Moon is Illuminated

Today's Extremes

Country Highs Country Lows

Community

WunderPhotos

Upload Photos

1,835,501 photos uploaded!

WunderBlogs® & News

Nearby

Air Quality

  Air Quality AQ Index Pollutant
Not available.

Snow Depth

Station Depth Elevation

Earthquake Activity

City Distance Mag. Time & Date
Minimum magnitude displayed is 2.5.

Coastal Water Temperatures

Place Temperature

Stations

Nearby Weather Stations

Station Location Temp. Windchill Dew Point Humidity Wind Precip. Elev Updated Type